Time;durP1;ratioP1;P1;durP2;ratioP2;P2;SDS_P1;SDS_P2;PMS_P1;PMS_P2;Temp;Humidity;BMP_temperature;BMP_pressure;BME280_temperature;BME280_humidity;BME280_pressure;Samples;Min_cycle;Max_cycle;Signal;HPM_P1;HPM_P2
2020/12/22 00:01:58;;;;;;;82.72;40.70;;;;;;;5.88;66.50;96120.34;5050069;28;20628;-65
2020/12/22 00:04:25;;;;;;;77.85;39.47;;;;;;;5.92;66.53;96120.75;5049701;28;20231;-68
2020/12/22 00:06:58;;;;;;;79.10;40.05;;;;;;;5.92;66.78;96121.56;5049784;28;20661;-69
2020/12/22 00:09:25;;;;;;;74.38;39.17;;;;;;;5.95;66.23;96115.16;5048285;28;20228;-67
2020/12/22 00:11:51;;;;;;;75.45;39.53;;;;;;;6.02;66.36;96113.41;5049941;28;20218;-65
2020/12/22 00:14:19;;;;;;;72.40;39.28;;;;;;;6.01;66.39;96124.78;5049599;28;20196;-67
2020/12/22 00:16:45;;;;;;;79.20;40.17;;;;;;;6.06;66.15;96122.38;5049933;28;20605;-67
2020/12/22 00:19:12;;;;;;;80.13;41.40;;;;;;;6.04;66.17;96129.59;5048772;28;20207;-68
2020/12/22 00:21:38;;;;;;;79.38;40.35;;;;;;;6.10;66.08;96134.00;5049827;28;20213;-66
2020/12/22 00:24:06;;;;;;;79.00;41.90;;;;;;;6.08;66.31;96125.59;5049657;28;20566;-68
2020/12/22 00:26:33;;;;;;;79.47;41.72;;;;;;;6.00;66.29;96144.00;5049017;28;20517;-64
2020/12/22 00:29:00;;;;;;;76.82;40.55;;;;;;;5.82;66.60;96112.50;5048905;28;20663;-65
2020/12/22 00:31:26;;;;;;;85.80;42.65;;;;;;;5.91;66.85;96138.16;5048518;28;20274;-66
2020/12/22 00:33:53;;;;;;;81.75;41.90;;;;;;;5.87;66.91;96143.97;5048795;28;20246;-67
2020/12/22 00:36:19;;;;;;;79.18;40.42;;;;;;;5.90;66.86;96140.97;5049558;28;20184;-64
2020/12/22 00:38:46;;;;;;;77.70;40.10;;;;;;;5.98;66.82;96143.41;5048816;28;20201;-68
2020/12/22 00:41:13;;;;;;;80.55;41.40;;;;;;;5.97;66.47;96134.78;5049436;28;20204;-67
2020/12/22 00:43:43;;;;;;;87.03;43.55;;;;;;;5.85;66.91;96135.56;5048892;28;20194;-67
2020/12/22 00:46:15;;;;;;;86.18;44.58;;;;;;;5.97;66.71;96144.38;5048903;28;20230;-64
2020/12/22 00:48:49;;;;;;;91.57;46.33;;;;;;;5.89;66.60;96139.38;5048693;28;20217;-65
2020/12/22 00:51:24;;;;;;;110.13;49.30;;;;;;;5.93;66.46;96130.19;5047847;28;20285;-68
2020/12/22 00:53:56;;;;;;;102.97;50.25;;;;;;;5.95;66.65;96135.97;5064326;28;20247;-67
2020/12/22 00:56:24;;;;;;;94.78;47.83;;;;;;;5.74;67.19;96133.47;5064596;28;20212;-65
2020/12/22 00:58:56;;;;;;;99.43;50.33;;;;;;;5.92;66.52;96133.78;5047230;28;20204;-67
2020/12/22 01:01:22;;;;;;;97.50;49.03;;;;;;;6.03;66.49;96133.19;5049100;28;20275;-68
2020/12/22 01:03:49;;;;;;;92.25;47.25;;;;;;;5.86;66.74;96131.94;5049574;28;20223;-66
2020/12/22 01:06:16;;;;;;;85.45;43.95;;;;;;;5.90;67.20;96133.16;5048963;28;20192;-65
2020/12/22 01:08:43;;;;;;;84.82;43.78;;;;;;;5.83;67.15;96137.53;5048915;28;20223;-64
2020/12/22 01:11:10;;;;;;;75.50;41.38;;;;;;;5.92;66.83;96136.38;5049753;28;20235;-65
2020/12/22 01:13:37;;;;;;;88.78;45.63;;;;;;;5.93;67.17;96138.00;5050231;28;20629;-64
2020/12/22 01:16:03;;;;;;;100.63;49.15;;;;;;;5.88;67.20;96129.94;5051540;28;20725;-66
2020/12/22 01:18:44;;;;;;;96.93;48.47;;;;;;;5.82;67.37;96130.72;5051407;28;20276;-63
2020/12/22 01:21:17;;;;;;;99.10;49.15;;;;;;;5.91;67.23;96134.78;5052131;28;20254;-67
2020/12/22 01:23:43;;;;;;;100.28;48.45;;;;;;;5.92;67.06;96133.78;5049759;28;20198;-68
2020/12/22 01:26:10;;;;;;;91.53;45.72;;;;;;;5.74;67.32;96128.28;5048888;28;20192;-66
2020/12/22 01:28:36;;;;;;;85.57;44.13;;;;;;;5.85;67.24;96131.16;5048303;28;20686;-64
2020/12/22 01:31:02;;;;;;;84.60;43.25;;;;;;;5.83;67.26;96133.16;5048875;28;20189;-65
2020/12/22 01:33:29;;;;;;;85.35;43.35;;;;;;;5.77;67.42;96135.69;5048649;28;20220;-68
2020/12/22 01:35:56;;;;;;;86.35;44.78;;;;;;;5.72;67.32;96130.28;5048907;28;20271;-66
2020/12/22 01:38:22;;;;;;;88.75;44.25;;;;;;;5.70;67.65;96137.47;5048706;28;20196;-69
2020/12/22 01:40:49;;;;;;;83.07;43.88;;;;;;;5.52;67.90;96132.81;5048165;28;20215;-67
2020/12/22 01:43:16;;;;;;;90.80;44.35;;;;;;;5.67;67.93;96133.47;5047545;28;20207;-69
2020/12/22 01:45:43;;;;;;;87.72;43.97;;;;;;;5.73;67.52;96131.91;5048614;28;20209;-66
2020/12/22 01:48:10;;;;;;;93.75;45.08;;;;;;;5.72;67.75;96130.28;5048903;28;20801;-66
2020/12/22 01:50:37;;;;;;;86.28;43.70;;;;;;;5.71;68.06;96128.69;5048667;28;20579;-65
2020/12/22 01:53:03;;;;;;;82.35;42.35;;;;;;;5.65;67.61;96124.25;5048581;28;20192;-66
2020/12/22 01:55:30;;;;;;;85.90;42.88;;;;;;;5.75;67.42;96124.66;5048088;28;20299;-65
2020/12/22 01:57:56;;;;;;;84.93;43.13;;;;;;;5.68;67.91;96119.47;5048499;28;20291;-67
2020/12/22 02:00:23;;;;;;;83.22;43.50;;;;;;;5.59;68.07;96125.03;5048465;28;20204;-65
2020/12/22 02:02:49;;;;;;;87.35;44.28;;;;;;;5.67;67.88;96127.47;5048716;28;20304;-65
2020/12/22 02:05:16;;;;;;;80.03;39.50;;;;;;;5.77;67.46;96122.69;5048083;28;20220;-68
2020/12/22 02:07:42;;;;;;;81.63;40.97;;;;;;;5.65;67.37;96116.44;5048430;28;20224;-64
2020/12/22 02:10:09;;;;;;;87.40;43.15;;;;;;;5.68;67.55;96118.66;5048012;28;20243;-68
2020/12/22 02:12:40;;;;;;;89.03;42.90;;;;;;;5.73;67.42;96113.69;5048358;28;20192;-66
2020/12/22 02:15:08;;;;;;;84.18;41.17;;;;;;;5.66;68.04;96110.25;5051785;28;20208;-64
2020/12/22 02:17:35;;;;;;;82.68;42.17;;;;;;;5.70;67.77;96116.66;5051862;28;20666;-65
2020/12/22 02:20:04;;;;;;;84.20;40.80;;;;;;;5.74;67.86;96113.50;5053964;28;20200;-67
2020/12/22 02:22:30;;;;;;;77.20;40.65;;;;;;;5.82;67.58;96120.31;5054109;28;20208;-63
2020/12/22 02:24:57;;;;;;;78.43;38.83;;;;;;;5.87;67.10;96113.56;5053050;28;20913;-64
2020/12/22 02:27:23;;;;;;;72.97;36.95;;;;;;;5.77;67.16;96104.47;5053800;28;20208;-65
2020/12/22 02:29:50;;;;;;;76.47;37.97;;;;;;;5.81;67.17;96118.69;5053404;28;20269;-67
2020/12/22 02:32:16;;;;;;;70.05;35.60;;;;;;;5.69;67.02;96104.66;5053449;28;20191;-64
2020/12/22 02:34:44;;;;;;;67.78;36.25;;;;;;;5.68;67.23;96105.66;5052825;28;20231;-64
2020/12/22 02:37:10;;;;;;;71.15;35.20;;;;;;;5.73;66.94;96113.69;5053445;28;20298;-62
2020/12/22 02:39:37;;;;;;;71.65;37.08;;;;;;;5.68;67.30;96108.25;5052959;28;20201;-64
2020/12/22 02:42:03;;;;;;;68.22;35.17;;;;;;;5.70;67.12;96099.28;5053174;28;20702;-67
2020/12/22 02:44:31;;;;;;;65.50;34.03;;;;;;;5.73;67.38;96100.69;5053208;28;20652;-64
2020/12/22 02:46:57;;;;;;;70.05;35.50;;;;;;;5.69;67.02;96102.06;5054189;28;20689;-64
2020/12/22 02:49:42;;;;;;;62.08;32.42;;;;;;;5.67;67.05;96101.47;5055781;28;20351;-66
2020/12/22 02:52:10;;;;;;;58.53;32.53;;;;;;;5.61;67.07;96105.63;5053991;28;20204;-64
2020/12/22 02:54:37;;;;;;;63.33;31.42;;;;;;;5.47;67.08;96074.59;5055824;28;20193;-64
2020/12/22 02:57:04;;;;;;;54.92;30.95;;;;;;;5.67;67.16;96093.66;5054162;28;20193;-67
2020/12/22 02:59:30;;;;;;;59.88;32.55;;;;;;;5.70;66.85;96096.66;5053166;28;20189;-66
2020/12/22 03:01:57;;;;;;;49.72;28.27;;;;;;;5.67;66.49;96098.84;5053073;28;20200;-63
2020/12/22 03:04:24;;;;;;;50.08;27.58;;;;;;;5.63;66.57;96088.06;5051874;28;20196;-68
2020/12/22 03:06:50;;;;;;;58.10;28.42;;;;;;;5.69;66.53;96104.66;5052287;28;20207;-66
2020/12/22 03:09:17;;;;;;;52.08;28.88;;;;;;;5.68;66.33;96103.06;5050194;28;20686;-66
2020/12/22 03:11:43;;;;;;;52.28;29.40;;;;;;;5.69;66.53;96099.47;5051191;28;20578;-66
2020/12/22 03:14:10;;;;;;;54.50;29.73;;;;;;;5.61;67.18;96097.84;5050461;28;20196;-65
2020/12/22 03:16:37;;;;;;;54.28;28.60;;;;;;;5.74;67.08;96087.47;5050679;28;20747;-63
2020/12/22 03:19:04;;;;;;;52.17;29.50;;;;;;;5.90;66.29;96086.34;5050478;28;20207;-67
2020/12/22 03:21:30;;;;;;;55.15;29.92;;;;;;;5.72;66.84;96075.66;5051177;28;20303;-68
2020/12/22 03:23:57;;;;;;;51.97;28.88;;;;;;;5.73;67.07;96079.88;5049709;28;20195;-69
2020/12/22 03:26:23;;;;;;;53.65;29.45;;;;;;;5.79;66.90;96079.06;5051096;28;20287;-67
2020/12/22 03:28:49;;;;;;;48.33;28.08;;;;;;;5.83;66.72;96072.53;5050220;28;20889;-69
2020/12/22 03:31:16;;;;;;;46.83;27.95;;;;;;;5.86;66.60;96074.72;5051205;28;20194;-67
2020/12/22 03:33:43;;;;;;;49.45;27.35;;;;;;;5.81;66.64;96074.47;5050410;28;20228;-67
2020/12/22 03:36:09;;;;;;;50.42;28.02;;;;;;;5.72;66.44;96054.84;5050423;28;20275;-63
2020/12/22 03:38:35;;;;;;;52.05;29.02;;;;;;;5.77;66.37;96070.66;5049824;28;20216;-68
2020/12/22 03:41:02;;;;;;;51.40;28.38;;;;;;;5.82;66.48;96078.69;5050725;28;20266;-68
2020/12/22 03:43:30;;;;;;;52.63;28.80;;;;;;;5.81;66.63;96077.09;5050395;28;20651;-66
2020/12/22 03:45:57;;;;;;;54.67;30.30;;;;;;;5.70;66.94;96081.06;5050425;28;20196;-65
2020/12/22 03:48:25;;;;;;;53.78;30.60;;;;;;;5.76;66.89;96079.47;5050444;28;20215;-69
2020/12/22 03:50:52;;;;;;;55.10;30.20;;;;;;;5.69;66.88;96076.06;5049902;28;20303;-69
2020/12/22 03:53:19;;;;;;;61.15;32.13;;;;;;;5.70;66.70;96075.88;5050157;28;20207;-67
2020/12/22 03:55:46;;;;;;;58.67;32.38;;;;;;;5.81;66.36;96074.47;5049703;28;20211;-67
2020/12/22 03:58:13;;;;;;;59.70;31.40;;;;;;;5.72;66.56;96073.88;5050165;28;20196;-66
2020/12/22 04:00:39;;;;;;;68.38;33.95;;;;;;;5.68;66.69;96074.44;5049786;28;20633;-67
2020/12/22 04:03:06;;;;;;;61.88;33.58;;;;;;;5.72;66.45;96073.88;5049997;28;20215;-69
2020/12/22 04:05:32;;;;;;;56.28;32.03;;;;;;;5.80;66.22;96070.28;5049400;28;20192;-66
2020/12/22 04:08:00;;;;;;;52.10;29.83;;;;;;;5.80;66.10;96067.69;5049739;28;20219;-69
2020/12/22 04:10:26;;;;;;;56.75;30.60;;;;;;;5.85;66.30;96070.53;5049803;28;20266;-69
2020/12/22 04:12:52;;;;;;;55.22;30.98;;;;;;;5.72;66.51;96067.88;5049795;28;20219;-69
2020/12/22 04:15:19;;;;;;;48.95;29.80;;;;;;;5.69;66.72;96063.06;5049564;28;20197;-69
2020/12/22 04:17:45;;;;;;;53.22;28.90;;;;;;;5.76;66.51;96075.09;5049763;28;20200;-67
2020/12/22 04:20:12;;;;;;;49.80;28.35;;;;;;;5.69;66.84;96078.66;5051294;28;20204;-66
2020/12/22 04:22:39;;;;;;;46.42;27.73;;;;;;;5.64;67.28;96081.06;5056014;28;20254;-61
2020/12/22 04:25:05;;;;;;;47.03;26.60;;;;;;;5.66;66.92;96073.84;5049356;28;20685;-66
2020/12/22 04:27:32;;;;;;;47.50;26.63;;;;;;;5.65;66.98;96073.06;5049610;28;20644;-64
2020/12/22 04:29:58;;;;;;;49.45;25.52;;;;;;;5.66;66.83;96074.66;5049393;28;20192;-67
2020/12/22 04:32:24;;;;;;;52.58;26.05;;;;;;;5.64;67.11;96075.84;5049544;28;20250;-67
2020/12/22 04:34:51;;;;;;;43.78;25.10;;;;;;;5.67;66.84;96075.47;5047543;28;20244;-68
2020/12/22 04:37:17;;;;;;;48.72;24.80;;;;;;;5.64;66.68;96086.25;5048635;28;20254;-63
2020/12/22 04:39:44;;;;;;;42.90;24.15;;;;;;;5.63;66.95;96084.63;5048958;28;20669;-66
2020/12/22 04:42:13;;;;;;;39.47;23.48;;;;;;;5.63;67.20;96089.84;5049462;28;20193;-66
2020/12/22 04:44:40;;;;;;;42.17;22.95;;;;;;;5.71;66.67;96081.88;5048770;28;20294;-65
2020/12/22 04:47:08;;;;;;;41.85;24.30;;;;;;;5.78;66.54;96082.69;5050070;28;20304;-65
2020/12/22 04:49:39;;;;;;;39.25;23.33;;;;;;;5.77;66.32;96083.66;5050738;28;20686;-64
2020/12/22 04:52:07;;;;;;;44.08;23.38;;;;;;;5.73;66.43;96079.88;5049461;28;20640;-62
2020/12/22 04:54:39;;;;;;;38.17;22.75;;;;;;;5.63;66.46;96079.44;5048469;28;20212;-67
2020/12/22 04:57:06;;;;;;;39.20;22.80;;;;;;;5.61;66.67;96082.25;5049512;28;20287;-67
2020/12/22 04:59:37;;;;;;;38.75;22.83;;;;;;;5.64;66.63;96091.47;5047224;28;20590;-63
2020/12/22 05:02:03;;;;;;;42.65;24.05;;;;;;;5.72;66.50;96083.47;5049132;28;20279;-71
2020/12/22 05:04:37;;;;;;;42.70;25.08;;;;;;;5.63;67.01;96089.84;5048643;28;20238;-68
2020/12/22 05:07:05;;;;;;;43.65;24.60;;;;;;;5.62;67.20;96090.84;5049299;28;20204;-69
2020/12/22 05:09:31;;;;;;;40.63;24.52;;;;;;;5.60;67.15;96093.63;5048301;28;20228;-64
2020/12/22 05:12:00;;;;;;;42.15;23.92;;;;;;;5.61;67.33;96087.44;5049352;28;20235;-64
2020/12/22 05:14:27;;;;;;;39.00;24.10;;;;;;;5.66;66.96;96094.63;5048378;28;20204;-63
2020/12/22 05:16:55;;;;;;;41.47;23.60;;;;;;;5.68;67.11;96093.47;5044877;28;20211;-67
2020/12/22 05:19:22;;;;;;;42.20;22.63;;;;;;;5.63;66.64;96090.66;5048403;28;20211;-67
2020/12/22 05:21:54;;;;;;;40.40;24.23;;;;;;;5.53;66.81;96089.41;5049117;28;20187;-66
2020/12/22 05:24:22;;;;;;;43.92;24.00;;;;;;;5.65;66.68;96069.66;5047878;28;20206;-68
2020/12/22 05:26:49;;;;;;;41.58;23.30;;;;;;;5.71;66.35;96082.66;5048960;28;20212;-69
2020/12/22 05:29:18;;;;;;;37.13;22.30;;;;;;;5.68;66.54;96084.84;5048417;28;20334;-66
2020/12/22 05:31:47;;;;;;;39.67;22.38;;;;;;;5.69;66.75;96084.66;5048723;28;20180;-64
2020/12/22 05:34:15;;;;;;;41.60;23.40;;;;;;;5.69;66.66;96089.06;5047664;28;20331;-65
2020/12/22 05:36:43;;;;;;;39.78;22.77;;;;;;;5.68;66.26;96087.44;5048764;28;20206;-67
2020/12/22 05:39:16;;;;;;;44.05;23.27;;;;;;;5.75;66.57;96083.06;5048095;28;20188;-66
2020/12/22 05:41:42;;;;;;;45.15;25.40;;;;;;;5.70;66.59;96086.25;5049128;28;20239;-65
2020/12/22 05:44:09;;;;;;;44.17;24.73;;;;;;;5.65;66.82;96098.25;5048371;28;20295;-67
2020/12/22 05:46:37;;;;;;;43.10;24.13;;;;;;;5.57;66.94;96099.22;5048076;28;20199;-62
2020/12/22 05:49:08;;;;;;;46.03;25.92;;;;;;;5.50;67.40;96101.00;5051403;28;20266;-67
2020/12/22 05:51:38;;;;;;;45.75;25.85;;;;;;;5.45;67.30;96097.38;5052209;28;20215;-64
2020/12/22 05:54:07;;;;;;;45.50;24.60;;;;;;;5.42;67.40;96095.97;5055978;28;20215;-67
2020/12/22 05:56:35;;;;;;;40.55;24.85;;;;;;;5.56;66.94;96104.63;5057565;28;20631;-69
2020/12/22 05:59:02;;;;;;;40.92;25.10;;;;;;;5.52;67.29;96098.19;5051513;28;20188;-67
2020/12/22 06:01:31;;;;;;;45.55;25.80;;;;;;;5.63;66.93;96102.84;5050698;28;20181;-67
2020/12/22 06:04:02;;;;;;;45.63;24.13;;;;;;;5.73;66.64;96090.28;5050295;28;20207;-62
2020/12/22 06:06:32;;;;;;;43.55;24.05;;;;;;;5.80;66.80;96093.69;5050769;28;20812;-64
2020/12/22 06:08:59;;;;;;;43.45;25.45;;;;;;;5.93;66.44;96096.38;5050265;28;20258;-61
2020/12/22 06:11:29;;;;;;;43.40;25.42;;;;;;;5.93;66.54;96101.56;5051026;28;20569;-66
2020/12/22 06:13:57;;;;;;;40.72;25.08;;;;;;;5.62;66.77;96070.81;5050250;28;20768;-65
2020/12/22 06:16:24;;;;;;;49.75;28.13;;;;;;;5.82;66.52;96087.28;5048474;28;20547;-66
2020/12/22 06:18:51;;;;;;;48.55;28.30;;;;;;;5.88;66.14;96090.94;5050512;28;20231;-65
2020/12/22 06:21:19;;;;;;;48.22;27.42;;;;;;;5.83;66.25;96096.75;5050472;28;20239;-70
2020/12/22 06:23:47;;;;;;;51.72;28.33;;;;;;;5.82;66.27;96087.28;5050376;28;20264;-65
2020/12/22 06:26:16;;;;;;;49.67;27.45;;;;;;;5.93;66.08;96098.97;5050382;28;20195;-67
2020/12/22 06:28:44;;;;;;;53.80;31.67;;;;;;;5.89;66.17;96084.75;5044614;28;20665;-65
2020/12/22 06:31:31;;;;;;;45.42;26.35;;;;;;;5.83;66.24;96090.72;5049886;28;20196;-64
2020/12/22 06:33:58;;;;;;;48.65;27.38;;;;;;;5.79;66.60;96094.69;5048682;28;20310;-67
2020/12/22 06:36:24;;;;;;;50.90;30.25;;;;;;;5.80;66.63;96080.69;5051696;28;20713;-67
2020/12/22 06:38:59;;;;;;;48.28;25.90;;;;;;;5.84;66.15;96084.50;5050990;28;20212;-69
2020/12/22 06:41:31;;;;;;;49.78;27.17;;;;;;;5.91;66.29;96082.75;5051504;28;20200;-65
2020/12/22 06:43:57;;;;;;;44.38;25.52;;;;;;;5.93;66.40;96078.94;5050893;28;20188;-66
2020/12/22 06:46:32;;;;;;;54.22;35.20;;;;;;;5.92;66.73;96072.16;5051330;28;20196;-67
2020/12/22 06:49:03;;;;;;;86.05;50.92;;;;;;;6.08;65.95;96073.56;5050686;28;20224;-69
2020/12/22 06:51:32;;;;;;;48.47;30.10;;;;;;;6.18;65.40;96073.97;5051930;28;20197;-65
2020/12/22 06:53:59;;;;;;;50.65;26.80;;;;;;;6.17;65.36;96066.38;5050672;28;20192;-65
2020/12/22 06:56:49;;;;;;;47.20;26.33;;;;;;;6.24;65.10;96074.97;5050532;28;20254;-69
2020/12/22 06:59:44;;;;;;;46.67;27.10;;;;;;;6.30;64.79;96071.56;5046186;28;20216;-64
2020/12/22 07:02:32;;;;;;;44.10;24.15;;;;;;;6.20;64.84;96065.97;5046849;28;20243;-64
2020/12/22 07:05:00;;;;;;;41.42;24.38;;;;;;;6.24;64.72;96073.16;5047959;28;20657;-68
2020/12/22 07:07:58;;;;;;;43.88;25.25;;;;;;;6.21;64.68;96068.38;5047062;28;20571;-67
2020/12/22 07:10:28;;;;;;;46.03;27.33;;;;;;;6.22;64.95;96064.78;5048783;28;20203;-63
2020/12/22 07:12:56;;;;;;;47.50;25.23;;;;;;;6.12;66.88;96070.38;5049195;28;20192;-68
2020/12/22 07:15:34;;;;;;;39.85;24.00;;;;;;;6.29;67.41;96069.97;5049438;28;20270;-68
2020/12/22 07:18:11;;;;;;;43.28;24.27;;;;;;;6.33;68.17;96071.19;5050895;28;20204;-66
2020/12/22 07:20:43;;;;;;;42.88;24.48;;;;;;;6.17;65.71;96029.94;5049880;28;20219;-68
2020/12/22 07:23:11;;;;;;;42.70;24.23;;;;;;;6.22;65.71;96064.78;5050268;28;20208;-69
2020/12/22 07:25:40;;;;;;;131.77;79.95;;;;;;;6.35;65.58;96064.75;5051428;28;20205;-63
2020/12/22 07:28:08;;;;;;;44.97;25.38;;;;;;;6.48;65.11;96064.75;5056509;28;20278;-67
2020/12/22 07:30:35;;;;;;;45.95;24.23;;;;;;;6.32;64.76;96065.16;5049736;28;20204;-64
2020/12/22 07:33:02;;;;;;;48.40;25.58;;;;;;;6.46;64.37;96066.75;5049997;28;20240;-66
2020/12/22 07:35:31;;;;;;;43.50;25.13;;;;;;;6.46;64.40;96050.34;5049952;28;20283;-67
2020/12/22 07:38:05;;;;;;;41.00;24.15;;;;;;;6.46;64.42;96064.16;5050443;28;20212;-71
2020/12/22 07:40:40;;;;;;;46.60;25.95;;;;;;;6.38;64.38;96059.16;5051920;28;20215;-73
2020/12/22 07:43:12;;;;;;;49.03;27.17;;;;;;;6.43;64.48;96061.97;5053052;28;20185;-64
2020/12/22 07:45:51;;;;;;;56.47;27.88;;;;;;;6.55;64.38;96070.75;5045638;28;20215;-68
2020/12/22 07:48:18;;;;;;;56.55;28.23;;;;;;;6.50;64.45;96061.94;5030178;28;20221;-68
2020/12/22 07:50:54;;;;;;;53.72;29.60;;;;;;;6.45;64.54;96059.97;5030530;28;20292;-70
2020/12/22 07:53:22;;;;;;;55.13;30.65;;;;;;;6.41;64.69;96061.38;5030638;28;20262;-66
2020/12/22 07:55:48;;;;;;;57.13;32.00;;;;;;;6.46;64.56;96061.56;5033958;28;20193;-65
2020/12/22 07:58:16;;;;;;;60.33;33.17;;;;;;;6.50;64.65;96062.75;5039753;28;20197;-65
2020/12/22 08:00:44;;;;;;;60.45;32.95;;;;;;;6.65;64.23;96065.94;5056692;28;20181;-70
2020/12/22 08:03:18;;;;;;;65.28;34.88;;;;;;;6.78;63.87;96065.94;5053536;28;20650;-72
2020/12/22 08:06:00;;;;;;;56.60;30.60;;;;;;;6.70;65.02;96071.34;5049164;28;20201;-70
2020/12/22 08:08:27;;;;;;;60.17;30.00;;;;;;;6.69;64.52;96077.56;5049047;28;20204;-68
2020/12/22 08:10:54;;;;;;;61.42;31.65;;;;;;;6.65;64.42;96080.78;5049007;28;20181;-69
2020/12/22 08:13:26;;;;;;;56.88;31.25;;;;;;;6.64;64.38;96079.19;5049561;28;20632;-70
2020/12/22 08:15:53;;;;;;;56.00;32.08;;;;;;;6.65;64.41;96076.38;5048742;28;20244;-68
2020/12/22 08:18:19;;;;;;;59.92;34.22;;;;;;;6.70;63.97;96084.38;5049458;28;20191;-64
2020/12/22 08:20:47;;;;;;;59.97;33.70;;;;;;;6.67;64.08;96078.78;5048845;28;20189;-66
2020/12/22 08:23:17;;;;;;;65.30;34.88;;;;;;;6.60;64.30;96062.34;5049662;28;20254;-66
2020/12/22 08:25:47;;;;;;;60.60;35.28;;;;;;;6.69;64.23;96069.75;5048655;28;20353;-69
2020/12/22 08:28:27;;;;;;;67.28;36.38;;;;;;;6.90;64.17;96064.31;5049461;28;20223;-66
2020/12/22 08:30:54;;;;;;;54.70;33.15;;;;;;;6.94;65.33;96052.47;5050348;28;20211;-70
2020/12/22 08:33:22;;;;;;;63.10;33.13;;;;;;;6.99;64.88;96042.22;5049912;28;20224;-68
2020/12/22 08:35:50;;;;;;;64.05;33.75;;;;;;;6.87;64.45;96038.66;5051161;28;20185;-71
2020/12/22 08:38:25;;;;;;;64.88;31.52;;;;;;;6.80;64.77;96040.50;5049149;28;20187;-73
2020/12/22 08:40:54;;;;;;;59.33;32.17;;;;;;;7.07;64.03;96047.22;5048593;28;20287;-66
2020/12/22 08:43:23;;;;;;;60.22;31.40;;;;;;;7.82;62.97;96043.06;5048725;28;20212;-63
2020/12/22 08:45:50;;;;;;;60.38;31.08;;;;;;;8.09;60.96;96037.47;5048561;28;20621;-66
2020/12/22 08:48:17;;;;;;;58.33;30.58;;;;;;;8.32;60.69;96029.06;5048916;28;20300;-70
2020/12/22 08:50:51;;;;;;;57.28;31.27;;;;;;;8.19;60.62;96031.78;5048248;28;20875;-69
2020/12/22 08:53:49;;;;;;;58.63;31.75;;;;;;;7.63;61.85;96036.16;5048311;28;20204;-72
2020/12/22 08:56:15;;;;;;;58.42;32.03;;;;;;;7.96;61.07;96044.56;5046886;28;20184;-69
2020/12/22 08:58:54;;;;;;;58.67;31.65;;;;;;;7.68;60.74;96023.28;5046057;28;20593;-69
2020/12/22 09:01:23;;;;;;;53.20;30.42;;;;;;;7.92;60.84;96038.19;5047449;28;20286;-69
2020/12/22 09:03:52;;;;;;;56.97;31.88;;;;;;;7.84;60.77;96043.66;5046238;28;21001;-69
2020/12/22 09:06:30;;;;;;;54.80;29.65;;;;;;;7.88;60.82;96042.25;5047702;28;20726;-68
2020/12/22 09:09:15;;;;;;;55.50;30.10;;;;;;;7.77;60.89;96037.69;5046724;28;20232;-65
2020/12/22 09:11:47;;;;;;;53.40;29.37;;;;;;;7.64;61.17;96038.56;5048323;28;20313;-68
2020/12/22 09:14:17;;;;;;;64.55;29.90;;;;;;;7.58;61.69;96041.19;5048526;28;20450;-69
2020/12/22 09:16:53;;;;;;;49.20;27.38;;;;;;;7.39;62.39;96031.66;5048645;28;20283;-66
2020/12/22 09:19:28;;;;;;;60.67;32.05;;;;;;;7.53;62.36;96034.00;5048193;28;20230;-67
2020/12/22 09:22:01;;;;;;;62.63;33.67;;;;;;;7.46;62.56;96027.22;5049708;28;20210;-69
2020/12/22 09:24:28;;;;;;;58.13;32.88;;;;;;;7.56;62.35;96038.00;5052553;28;20188;-68
2020/12/22 09:27:05;;;;;;;73.20;36.55;;;;;;;7.29;63.27;96031.31;5052960;28;20200;-66
2020/12/22 09:29:33;;;;;;;59.38;33.65;;;;;;;7.36;62.86;96032.06;5052242;28;20234;-66
2020/12/22 09:32:00;;;;;;;62.83;33.90;;;;;;;7.26;62.90;96032.53;5052624;28;20186;-66
2020/12/22 09:34:31;;;;;;;62.78;33.03;;;;;;;7.33;63.87;96032.50;5052622;28;20657;-63
2020/12/22 09:37:01;;;;;;;56.00;32.33;;;;;;;7.42;62.97;96021.63;5053143;28;20263;-65
2020/12/22 09:39:30;;;;;;;59.90;30.73;;;;;;;7.44;63.09;96021.41;5052225;28;20299;-69
2020/12/22 09:41:56;;;;;;;54.05;31.25;;;;;;;7.29;63.06;96020.88;5052797;28;20193;-68
2020/12/22 09:44:24;;;;;;;63.70;33.38;;;;;;;7.38;64.88;96003.97;5051844;28;20184;-67
2020/12/22 09:46:53;;;;;;;56.38;33.40;;;;;;;7.47;63.19;96010.56;5052623;28;20264;-67
2020/12/22 09:49:21;;;;;;;59.20;34.67;;;;;;;7.35;62.44;96020.84;5052097;28;20251;-71
2020/12/22 09:51:48;;;;;;;64.65;34.00;;;;;;;7.26;63.04;96022.09;5052304;28;20197;-66
2020/12/22 09:54:18;;;;;;;61.75;33.00;;;;;;;7.29;62.74;96020.88;5051834;28;20209;-66
2020/12/22 09:56:45;;;;;;;58.88;32.72;;;;;;;7.24;62.56;96018.09;5052299;28;20799;-67
2020/12/22 09:59:11;;;;;;;65.55;33.35;;;;;;;7.13;62.67;96028.13;5050754;28;20238;-67
2020/12/22 10:01:38;;;;;;;59.47;33.38;;;;;;;7.24;65.67;96028.53;5052076;28;20185;-66
2020/12/22 10:04:05;;;;;;;58.15;33.72;;;;;;;7.22;64.44;96020.09;5051446;28;20204;-62
2020/12/22 10:06:31;;;;;;;61.15;32.63;;;;;;;6.98;63.38;96017.19;5051729;28;20196;-66
2020/12/22 10:08:58;;;;;;;61.38;33.10;;;;;;;6.96;63.83;96016.59;5050989;28;20294;-62
2020/12/22 10:11:25;;;;;;;58.17;31.40;;;;;;;7.05;63.19;96010.16;5051883;28;20541;-66
2020/12/22 10:13:52;;;;;;;59.08;31.15;;;;;;;7.21;62.82;96008.09;5051108;28;20227;-64
2020/12/22 10:16:21;;;;;;;62.63;34.05;;;;;;;7.21;63.03;96008.88;5051808;28;20193;-64
2020/12/22 10:18:48;;;;;;;62.03;34.47;;;;;;;7.17;63.26;96003.28;5051113;28;20193;-61
2020/12/22 10:21:18;;;;;;;61.63;33.17;;;;;;;7.31;63.04;95998.00;5051655;28;20962;-64
2020/12/22 10:23:49;;;;;;;62.70;32.60;;;;;;;7.41;61.85;95998.38;5053722;28;20712;-62
2020/12/22 10:26:18;;;;;;;56.10;32.35;;;;;;;7.44;62.63;96003.97;5052855;28;20205;-64
2020/12/22 10:28:46;;;;;;;57.95;31.08;;;;;;;7.35;62.43;95986.97;5049913;28;20318;-62
2020/12/22 10:31:17;;;;;;;84.10;45.75;;;;;;;7.47;62.79;95993.09;5051272;28;20303;-62
2020/12/22 10:33:46;;;;;;;84.07;46.50;;;;;;;7.49;62.92;95983.28;5049175;28;20681;-63
2020/12/22 10:36:19;;;;;;;69.65;38.40;;;;;;;7.59;63.04;95988.81;5051721;28;20208;-63
2020/12/22 10:38:52;;;;;;;63.58;33.05;;;;;;;7.63;62.02;95994.41;5050813;28;20227;-63
2020/12/22 10:41:19;;;;;;;63.60;32.42;;;;;;;7.63;61.69;95991.78;5051105;28;20230;-62
2020/12/22 10:43:47;;;;;;;69.90;36.42;;;;;;;7.70;61.91;95992.59;5050683;28;20192;-63
2020/12/22 10:46:14;;;;;;;58.97;34.88;;;;;;;7.57;62.11;95988.22;5066178;28;20287;-65
2020/12/22 10:48:42;;;;;;;63.53;34.75;;;;;;;7.56;61.23;95991.03;5050292;28;20220;-64
2020/12/22 10:51:09;;;;;;;67.30;36.05;;;;;;;7.63;62.04;95991.78;5051317;28;20311;-65
2020/12/22 10:53:36;;;;;;;65.28;36.25;;;;;;;7.59;61.62;95995.84;5050581;28;20193;-63
2020/12/22 10:56:03;;;;;;;73.72;37.45;;;;;;;7.70;61.71;95995.19;5050560;28;20593;-63
2020/12/22 10:58:30;;;;;;;70.20;35.70;;;;;;;7.59;62.08;95986.22;5050334;28;20737;-65
2020/12/22 11:00:56;;;;;;;70.45;38.70;;;;;;;7.74;62.47;95978.09;5050963;28;20216;-63
2020/12/22 11:03:23;;;;;;;73.13;36.50;;;;;;;7.72;61.41;95959.25;5050727;28;20586;-62
2020/12/22 11:06:04;;;;;;;65.97;37.97;;;;;;;7.73;61.39;95946.00;5050442;28;20180;-64
2020/12/22 11:08:30;;;;;;;75.18;40.67;;;;;;;7.73;60.71;95953.03;5050419;28;20209;-64
2020/12/22 11:10:57;;;;;;;79.22;39.90;;;;;;;7.87;60.97;95951.91;5050367;28;20279;-63
2020/12/22 11:13:23;;;;;;;72.53;39.40;;;;;;;8.00;61.11;95957.03;5051051;28;20188;-63
2020/12/22 11:15:50;;;;;;;78.22;41.30;;;;;;;7.94;60.74;95952.66;5050044;28;20193;-64
2020/12/22 11:18:18;;;;;;;69.07;36.80;;;;;;;8.09;60.39;95945.31;5050845;28;20200;-65
2020/12/22 11:20:45;;;;;;;66.45;36.65;;;;;;;8.07;60.76;95944.72;5050035;28;20269;-62
2020/12/22 11:23:12;;;;;;;66.13;36.65;;;;;;;8.00;60.07;95941.38;5050509;28;20211;-64
2020/12/22 11:25:39;;;;;;;66.68;37.55;;;;;;;7.96;60.36;95929.75;5050008;28;20193;-64
2020/12/22 11:28:05;;;;;;;73.65;38.22;;;;;;;8.19;59.85;95941.19;5050424;28;20200;-64
2020/12/22 11:30:32;;;;;;;71.67;38.83;;;;;;;8.13;60.36;95925.59;5049891;28;20228;-64
2020/12/22 11:32:58;;;;;;;69.03;37.28;;;;;;;8.45;60.03;95914.03;5049840;28;20463;-66